createdAt,value
2018-10-17T00:02:05.339Z,9.87
2018-10-17T00:04:33.783Z,10.27
2018-10-17T00:07:02.363Z,10.70
2018-10-17T00:09:30.645Z,10.37
2018-10-17T00:11:58.980Z,10.50
2018-10-17T00:14:27.396Z,10.60
2018-10-17T00:16:55.695Z,11.30
2018-10-17T00:19:24.068Z,10.47
2018-10-17T00:21:52.412Z,10.43
2018-10-17T00:24:20.728Z,11.00
2018-10-17T00:26:49.305Z,10.93
2018-10-17T00:29:17.882Z,11.20
2018-10-17T00:31:46.091Z,11.60
2018-10-17T00:34:14.439Z,12.17
2018-10-17T00:36:42.870Z,11.47
2018-10-17T00:39:11.692Z,11.87
2018-10-17T00:41:40.491Z,11.43
2018-10-17T00:44:08.823Z,11.27
2018-10-17T00:46:37.128Z,12.37
2018-10-17T00:49:05.486Z,10.90
2018-10-17T00:51:33.776Z,12.37
2018-10-17T00:54:02.055Z,11.13
2018-10-17T00:56:30.385Z,11.67
2018-10-17T00:59:06.526Z,11.93
2018-10-17T01:01:35.079Z,12.93
2018-10-17T01:04:03.660Z,11.77
2018-10-17T01:06:32.901Z,11.87
2018-10-17T01:09:02.190Z,11.70
2018-10-17T01:11:30.525Z,13.00
2018-10-17T01:13:58.811Z,12.37
2018-10-17T01:16:27.272Z,12.63
2018-10-17T01:18:55.571Z,12.37
2018-10-17T01:21:23.904Z,11.77
2018-10-17T01:23:52.526Z,11.50
2018-10-17T01:26:20.923Z,12.13
2018-10-17T01:28:49.228Z,12.13
2018-10-17T01:31:17.550Z,11.13
2018-10-17T01:33:45.825Z,11.63
2018-10-17T01:36:14.115Z,10.70
2018-10-17T01:38:42.445Z,11.20
2018-10-17T01:43:45.460Z,11.33
2018-10-17T01:46:13.773Z,10.97
2018-10-17T01:48:42.105Z,11.53
2018-10-17T01:51:10.449Z,11.37
2018-10-17T01:53:38.755Z,11.63
2018-10-17T01:56:07.059Z,11.73
2018-10-17T01:58:35.354Z,10.63
2018-10-17T02:01:03.686Z,11.57
2018-10-17T02:03:31.998Z,11.13
2018-10-17T02:06:00.291Z,11.60
2018-10-17T02:08:28.602Z,12.30
2018-10-17T02:10:56.904Z,11.20
2018-10-17T02:13:25.227Z,10.77
2018-10-17T02:15:59.868Z,11.40
2018-10-17T02:18:28.178Z,11.00
2018-10-17T02:20:56.467Z,11.73
2018-10-17T02:23:24.778Z,11.10
2018-10-17T02:25:53.067Z,12.53
2018-10-17T02:28:21.362Z,11.07
2018-10-17T02:30:49.674Z,11.73
2018-10-17T02:33:17.985Z,11.40
2018-10-17T02:35:46.303Z,11.53
2018-10-17T02:38:14.622Z,12.57
2018-10-17T02:40:42.900Z,11.53
2018-10-17T02:43:11.292Z,11.93
2018-10-17T02:45:39.490Z,11.40
2018-10-17T02:48:07.787Z,10.83
2018-10-17T02:50:36.073Z,11.50
2018-10-17T02:53:04.631Z,11.40
2018-10-17T02:55:33.091Z,11.73
2018-10-17T02:58:02.151Z,11.50
2018-10-17T03:00:30.453Z,12.07
2018-10-17T03:02:58.796Z,11.73
2018-10-17T03:05:27.068Z,11.87
2018-10-17T03:07:55.391Z,11.83
2018-10-17T03:10:23.677Z,12.23
2018-10-17T03:12:52.042Z,11.37
2018-10-17T03:15:20.425Z,12.03
2018-10-17T03:17:48.647Z,12.20
2018-10-17T03:20:16.936Z,12.47
2018-10-17T03:22:45.233Z,11.57
2018-10-17T03:25:13.593Z,11.70
2018-10-17T03:27:41.884Z,12.33
2018-10-17T03:30:10.146Z,11.97
2018-10-17T03:32:38.540Z,12.00
2018-10-17T03:35:07.158Z,12.83
2018-10-17T03:37:35.847Z,12.00
2018-10-17T03:40:04.552Z,12.47
2018-10-17T03:42:32.852Z,13.10
2018-10-17T03:45:01.151Z,13.20
2018-10-17T03:47:29.444Z,12.83
2018-10-17T03:49:57.758Z,12.60
2018-10-17T03:52:26.058Z,12.13
2018-10-17T03:54:54.365Z,12.93
2018-10-17T03:57:22.688Z,12.30
2018-10-17T03:59:50.978Z,12.83
2018-10-17T04:02:19.284Z,12.30
2018-10-17T04:04:47.612Z,12.63
2018-10-17T04:07:15.946Z,11.70
2018-10-17T04:09:44.224Z,12.50
2018-10-17T04:12:12.526Z,11.63
2018-10-17T04:14:40.879Z,11.83
2018-10-17T04:17:09.341Z,13.43
2018-10-17T04:19:37.830Z,13.10
2018-10-17T04:22:06.138Z,13.80
2018-10-17T04:24:34.452Z,13.50
2018-10-17T04:27:02.749Z,13.53
2018-10-17T04:29:31.051Z,13.67
2018-10-17T04:31:59.344Z,12.87
2018-10-17T04:34:27.665Z,12.80
2018-10-17T04:36:55.954Z,13.47
2018-10-17T04:39:24.259Z,12.70
2018-10-17T04:41:52.715Z,12.53
2018-10-17T04:44:21.033Z,13.30
2018-10-17T04:46:49.338Z,13.40
2018-10-17T04:49:17.754Z,12.23
2018-10-17T04:51:45.943Z,12.67
2018-10-17T04:54:14.268Z,12.93
2018-10-17T04:56:42.596Z,12.27
2018-10-17T04:59:11.001Z,12.87
2018-10-17T05:01:39.201Z,12.50
2018-10-17T05:04:07.663Z,12.40
2018-10-17T05:06:35.985Z,12.10
2018-10-17T05:09:07.318Z,12.20
2018-10-17T05:11:35.667Z,13.30
2018-10-17T05:14:03.983Z,13.70
2018-10-17T05:16:32.271Z,13.50
2018-10-17T05:19:00.579Z,13.43
2018-10-17T05:21:28.955Z,14.10
2018-10-17T05:23:57.275Z,13.47
2018-10-17T05:26:25.571Z,13.87
2018-10-17T05:28:53.918Z,13.57
2018-10-17T05:31:23.282Z,13.30
2018-10-17T05:33:53.292Z,13.80
2018-10-17T05:36:21.606Z,14.70
2018-10-17T05:38:49.910Z,14.07
2018-10-17T05:41:18.296Z,13.77
2018-10-17T05:43:46.702Z,13.03
2018-10-17T05:46:15.041Z,14.13
2018-10-17T05:48:43.347Z,12.83
2018-10-17T05:51:11.716Z,13.33
2018-10-17T05:53:40.056Z,13.53
2018-10-17T05:56:08.419Z,12.93
2018-10-17T05:58:36.727Z,13.33
2018-10-17T06:01:05.668Z,13.07
2018-10-17T06:03:34.281Z,12.77
2018-10-17T06:06:02.715Z,13.57
2018-10-17T06:08:31.073Z,13.13
2018-10-17T06:10:59.457Z,13.03
2018-10-17T06:13:27.765Z,12.90
2018-10-17T06:15:56.149Z,13.37
2018-10-17T06:18:24.452Z,14.10
2018-10-17T06:20:52.809Z,12.97
2018-10-17T06:23:21.350Z,13.10
2018-10-17T06:25:49.823Z,12.93
2018-10-17T06:28:18.171Z,13.07
2018-10-17T06:30:46.625Z,12.70
2018-10-17T06:33:15.039Z,13.07
2018-10-17T06:35:43.371Z,12.53
2018-10-17T06:38:11.704Z,14.23
2018-10-17T06:40:40.042Z,13.97
2018-10-17T06:43:08.479Z,13.53
2018-10-17T06:45:36.789Z,13.27
2018-10-17T06:48:05.624Z,13.23
2018-10-17T06:50:33.955Z,14.53
2018-10-17T06:53:02.322Z,13.03
2018-10-17T06:55:30.622Z,13.73
2018-10-17T06:57:58.936Z,13.37
2018-10-17T07:00:27.284Z,14.10
2018-10-17T07:02:55.611Z,12.80
2018-10-17T07:05:24.121Z,13.70
2018-10-17T07:07:52.433Z,13.40
2018-10-17T07:10:20.792Z,13.27
2018-10-17T07:12:49.140Z,14.37
2018-10-17T07:15:17.546Z,12.87
2018-10-17T07:17:45.800Z,13.57
2018-10-17T07:20:14.126Z,13.67
2018-10-17T07:22:42.492Z,13.70
2018-10-17T07:25:10.868Z,12.97
2018-10-17T07:27:39.151Z,13.40
2018-10-17T07:30:08.549Z,13.23
2018-10-17T07:32:36.904Z,14.67
2018-10-17T07:35:05.815Z,13.93
2018-10-17T07:37:34.124Z,14.43
2018-10-17T07:40:02.437Z,15.67
2018-10-17T07:42:30.749Z,14.23
2018-10-17T07:44:59.083Z,15.37
2018-10-17T07:47:27.415Z,14.80
2018-10-17T07:49:55.769Z,14.87
2018-10-17T07:52:24.106Z,14.17
2018-10-17T07:54:52.544Z,14.30
2018-10-17T07:57:20.995Z,14.83
2018-10-17T07:59:49.319Z,14.80
2018-10-17T08:02:17.655Z,14.43
2018-10-17T08:04:45.968Z,14.43
2018-10-17T08:07:15.066Z,13.57
2018-10-17T08:09:43.369Z,14.03
2018-10-17T08:12:11.783Z,14.83
2018-10-17T08:14:41.829Z,14.30
2018-10-17T08:17:10.852Z,14.27
2018-10-17T08:19:39.307Z,13.87
2018-10-17T08:22:07.680Z,13.57
2018-10-17T08:24:35.978Z,13.87
2018-10-17T08:27:04.303Z,14.17
2018-10-17T08:29:32.634Z,14.03
2018-10-17T08:32:00.961Z,14.10
2018-10-17T08:34:29.258Z,15.00
2018-10-17T08:36:57.956Z,13.93
2018-10-17T08:39:25.990Z,14.40
2018-10-17T08:41:54.335Z,15.70
2018-10-17T08:44:22.649Z,15.53
2018-10-17T08:46:51.039Z,14.77
2018-10-17T08:49:19.360Z,15.40
2018-10-17T08:51:47.684Z,15.43
2018-10-17T08:54:16.024Z,15.57
2018-10-17T08:56:44.335Z,14.40
2018-10-17T08:59:12.819Z,15.03
2018-10-17T09:01:41.173Z,14.70
2018-10-17T09:04:09.496Z,15.13
2018-10-17T09:06:37.857Z,14.43
2018-10-17T09:09:09.524Z,14.67
2018-10-17T09:11:38.223Z,14.63
2018-10-17T09:14:06.544Z,16.00
2018-10-17T09:16:35.002Z,15.20
2018-10-17T09:19:03.228Z,15.53
2018-10-17T09:21:31.767Z,15.60
2018-10-17T09:24:00.569Z,15.13
2018-10-17T09:26:28.869Z,16.40
2018-10-17T09:28:57.195Z,25.50
2018-10-17T09:31:25.772Z,18.03
2018-10-17T09:33:54.083Z,16.23
2018-10-17T09:36:22.730Z,16.77
2018-10-17T09:38:51.019Z,16.37
2018-10-17T09:41:19.361Z,16.27
2018-10-17T09:43:47.644Z,16.97
2018-10-17T09:46:16.130Z,15.90
2018-10-17T09:48:44.376Z,16.97
2018-10-17T09:51:12.818Z,16.90
2018-10-17T09:53:41.142Z,17.57
2018-10-17T09:56:10.474Z,17.00
2018-10-17T09:58:38.770Z,17.57
2018-10-17T10:01:12.459Z,18.00
2018-10-17T10:03:40.752Z,18.20
2018-10-17T10:06:09.201Z,19.37
2018-10-17T10:08:37.463Z,17.60
2018-10-17T10:11:06.488Z,17.33
2018-10-17T10:13:34.763Z,17.13
2018-10-17T10:16:03.154Z,18.07
2018-10-17T10:18:31.442Z,17.93
2018-10-17T10:20:59.788Z,18.00
2018-10-17T10:23:28.112Z,18.53
2018-10-17T10:25:56.659Z,18.13
2018-10-17T10:28:25.006Z,19.33
2018-10-17T10:30:53.276Z,17.37
2018-10-17T10:33:21.604Z,17.50
2018-10-17T10:35:49.918Z,23.97
2018-10-17T10:38:18.341Z,18.57
2018-10-17T10:40:46.720Z,16.67
2018-10-17T10:43:14.996Z,17.27
2018-10-17T10:45:43.344Z,17.07
2018-10-17T10:48:11.775Z,15.97
2018-10-17T10:50:39.997Z,17.10
2018-10-17T10:53:08.528Z,16.87
2018-10-17T10:55:36.816Z,15.37
2018-10-17T10:58:05.180Z,16.37
2018-10-17T11:00:33.446Z,16.07
2018-10-17T11:03:01.840Z,16.47
2018-10-17T11:05:30.204Z,16.37
2018-10-17T11:07:58.444Z,15.77
2018-10-17T11:10:26.738Z,24.87
2018-10-17T11:12:55.099Z,23.27
2018-10-17T11:15:23.428Z,16.73
2018-10-17T11:17:51.787Z,17.23
2018-10-17T11:20:20.128Z,15.73
2018-10-17T11:22:48.485Z,16.10
2018-10-17T11:25:16.819Z,15.27
2018-10-17T11:27:45.476Z,15.33
2018-10-17T11:30:14.009Z,15.20
2018-10-17T11:32:42.327Z,14.67
2018-10-17T11:35:11.346Z,14.90
2018-10-17T11:37:39.691Z,14.93
2018-10-17T11:40:08.416Z,15.67
2018-10-17T11:42:37.164Z,15.20
2018-10-17T11:45:06.119Z,15.10
2018-10-17T11:47:34.785Z,15.30
2018-10-17T11:50:03.279Z,16.87
2018-10-17T11:52:31.858Z,13.43
2018-10-17T11:55:00.187Z,13.10
2018-10-17T11:57:29.110Z,13.13
2018-10-17T11:59:57.449Z,14.90
2018-10-17T12:02:25.775Z,16.00
2018-10-17T12:04:54.230Z,14.93
2018-10-17T12:07:22.440Z,15.80
2018-10-17T12:09:50.731Z,16.40
2018-10-17T12:12:19.187Z,13.37
2018-10-17T12:14:47.513Z,15.10
2018-10-17T12:17:15.852Z,14.57
2018-10-17T12:19:44.239Z,16.20
2018-10-17T12:22:12.554Z,15.43
2018-10-17T12:24:40.927Z,16.63
2018-10-17T12:27:09.326Z,16.00
2018-10-17T12:29:37.603Z,15.33
2018-10-17T12:32:06.216Z,15.13
2018-10-17T12:34:34.542Z,14.23
2018-10-17T12:37:02.908Z,15.20
2018-10-17T12:39:31.331Z,14.33
2018-10-17T12:41:59.597Z,14.17
2018-10-17T12:44:27.951Z,13.93
2018-10-17T12:46:56.365Z,13.23
2018-10-17T12:49:24.735Z,13.53
2018-10-17T12:51:53.150Z,12.40
2018-10-17T12:54:21.533Z,11.90
2018-10-17T12:56:49.901Z,11.43
2018-10-17T12:59:18.292Z,10.47
2018-10-17T13:01:46.570Z,10.13
2018-10-17T13:04:14.949Z,10.43
2018-10-17T13:06:43.322Z,14.30
2018-10-17T13:09:12.605Z,10.80
2018-10-17T13:11:41.064Z,12.30
2018-10-17T13:14:09.652Z,10.37
2018-10-17T13:16:37.953Z,10.33
2018-10-17T13:19:06.379Z,9.00
2018-10-17T13:21:34.632Z,9.40
2018-10-17T13:24:02.954Z,9.30
2018-10-17T13:26:31.274Z,8.93
2018-10-17T13:28:59.611Z,8.37
2018-10-17T13:31:27.940Z,9.57
2018-10-17T13:33:56.339Z,9.20
2018-10-17T13:36:24.652Z,10.17
2018-10-17T13:38:52.978Z,10.00
2018-10-17T13:41:21.290Z,8.93
2018-10-17T13:43:49.749Z,10.00
2018-10-17T13:46:18.154Z,9.60
2018-10-17T13:48:46.585Z,9.83
2018-10-17T13:51:14.986Z,8.97
2018-10-17T13:53:43.297Z,9.73
2018-10-17T13:56:11.606Z,9.57
2018-10-17T13:58:39.946Z,9.27
2018-10-17T14:01:08.543Z,9.17
2018-10-17T14:03:36.920Z,9.10
2018-10-17T14:06:05.778Z,9.03
2018-10-17T14:08:34.041Z,8.63
2018-10-17T14:11:02.370Z,9.23
2018-10-17T14:13:30.684Z,8.63
2018-10-17T14:15:59.035Z,8.80
2018-10-17T14:18:27.430Z,8.80
2018-10-17T14:20:55.780Z,8.30
2018-10-17T14:23:24.104Z,8.10
2018-10-17T14:25:52.381Z,8.70
2018-10-17T14:28:20.767Z,8.70
2018-10-17T14:30:49.097Z,9.47
2018-10-17T14:33:17.569Z,8.40
2018-10-17T14:35:45.845Z,9.33
2018-10-17T14:38:14.189Z,9.30
2018-10-17T14:40:42.533Z,9.07
2018-10-17T14:43:10.887Z,8.87
2018-10-17T14:45:39.213Z,8.93
2018-10-17T14:48:08.056Z,8.27
2018-10-17T14:50:36.448Z,8.80
2018-10-17T14:53:05.008Z,8.53
2018-10-17T14:55:33.304Z,8.70
2018-10-17T14:58:01.664Z,9.30
2018-10-17T15:00:30.048Z,7.53
2018-10-17T15:02:58.404Z,8.37
2018-10-17T15:05:26.733Z,8.33
2018-10-17T15:07:55.071Z,8.00
2018-10-17T15:10:23.428Z,7.60
2018-10-17T15:12:51.771Z,8.27
2018-10-17T15:15:20.207Z,7.80
2018-10-17T15:17:48.448Z,8.60
2018-10-17T15:20:16.765Z,8.23
2018-10-17T15:22:45.055Z,8.50
2018-10-17T15:25:14.113Z,8.27
2018-10-17T15:27:42.414Z,8.57
2018-10-17T15:30:10.832Z,8.67
2018-10-17T15:32:39.080Z,8.03
2018-10-17T15:35:08.171Z,8.27
2018-10-17T15:37:36.487Z,8.40
2018-10-17T15:40:05.373Z,9.10
2018-10-17T15:42:33.677Z,8.60
2018-10-17T15:45:02.060Z,8.97
2018-10-17T15:47:30.417Z,8.93
2018-10-17T15:49:58.746Z,8.87
2018-10-17T15:52:27.040Z,8.33
2018-10-17T15:55:01.833Z,8.43
2018-10-17T15:57:30.186Z,8.70
2018-10-17T15:59:58.550Z,8.70
2018-10-17T16:02:27.122Z,8.97
2018-10-17T16:04:55.730Z,9.30
2018-10-17T16:07:24.033Z,8.83
2018-10-17T16:09:52.354Z,8.67
2018-10-17T16:12:20.726Z,9.90
2018-10-17T16:14:49.107Z,9.93
2018-10-17T16:17:17.447Z,11.07
2018-10-17T16:19:45.755Z,10.07
2018-10-17T16:22:14.163Z,9.77
2018-10-17T16:24:42.495Z,9.37
2018-10-17T16:27:10.823Z,10.93
2018-10-17T16:29:39.161Z,10.33
2018-10-17T16:32:07.929Z,10.63
2018-10-17T16:34:36.230Z,11.27
2018-10-17T16:37:04.897Z,11.30
2018-10-17T16:39:33.216Z,11.70
2018-10-17T16:42:01.582Z,11.43
2018-10-17T16:44:29.961Z,11.23
2018-10-17T16:46:58.259Z,11.00
2018-10-17T16:49:26.588Z,11.83
2018-10-17T16:51:55.019Z,11.93
2018-10-17T16:54:23.352Z,12.40
2018-10-17T16:56:51.708Z,12.10
2018-10-17T16:59:20.031Z,12.57
2018-10-17T17:01:48.391Z,12.67
2018-10-17T17:04:16.708Z,14.10
2018-10-17T17:06:45.059Z,13.90
2018-10-17T17:09:13.495Z,13.73
2018-10-17T17:11:41.968Z,13.60
2018-10-17T17:14:10.300Z,13.70
2018-10-17T17:16:38.599Z,13.47
2018-10-17T17:19:06.936Z,13.57
2018-10-17T17:21:35.291Z,14.70
2018-10-17T17:24:03.675Z,13.17
2018-10-17T17:26:31.971Z,13.30
2018-10-17T17:29:00.346Z,13.17
2018-10-17T17:31:28.639Z,13.83
2018-10-17T17:33:57.170Z,13.93
2018-10-17T17:36:25.534Z,13.53
2018-10-17T17:38:53.839Z,15.10
2018-10-17T17:41:22.379Z,14.00
2018-10-17T17:43:50.740Z,15.03
2018-10-17T17:46:19.119Z,14.80
2018-10-17T17:48:47.456Z,14.93
2018-10-17T17:51:15.995Z,14.80
2018-10-17T17:53:44.361Z,14.40
2018-10-17T17:56:12.699Z,14.67
2018-10-17T17:58:41.202Z,14.97
2018-10-17T18:01:09.415Z,14.87
2018-10-17T18:03:37.757Z,14.20
2018-10-17T18:06:06.059Z,13.07
2018-10-17T18:08:34.448Z,13.40
2018-10-17T18:11:23.022Z,12.67
2018-10-17T18:13:52.129Z,14.33
2018-10-17T18:16:20.704Z,13.80
2018-10-17T18:18:49.031Z,13.60
2018-10-17T18:21:17.365Z,12.97
2018-10-17T18:23:46.064Z,13.50
2018-10-17T18:26:14.537Z,12.60
2018-10-17T18:28:43.407Z,12.60
2018-10-17T18:31:11.868Z,13.10
2018-10-17T18:33:40.211Z,12.50
2018-10-17T18:36:08.511Z,12.53
2018-10-17T18:38:36.884Z,12.53
2018-10-17T18:41:05.219Z,12.30
2018-10-17T18:43:33.532Z,11.73
2018-10-17T18:46:01.873Z,14.17
2018-10-17T18:48:30.236Z,14.30
2018-10-17T18:50:58.626Z,14.60
2018-10-17T18:53:27.761Z,14.70
2018-10-17T18:55:56.079Z,13.83
2018-10-17T18:58:24.412Z,13.67
2018-10-17T19:00:52.753Z,13.17
2018-10-17T19:03:21.203Z,12.70
2018-10-17T19:05:49.537Z,13.13
2018-10-17T19:08:17.884Z,12.70
2018-10-17T19:10:46.181Z,12.90
2018-10-17T19:13:14.478Z,13.50
2018-10-17T19:15:42.877Z,12.13
2018-10-17T19:18:11.154Z,11.70
2018-10-17T19:20:39.565Z,12.63
2018-10-17T19:23:08.005Z,12.83
2018-10-17T19:25:36.353Z,12.13
2018-10-17T19:28:04.775Z,12.30
2018-10-17T19:30:33.302Z,11.73
2018-10-17T19:33:03.144Z,12.27
2018-10-17T19:35:32.783Z,12.13
2018-10-17T19:38:01.222Z,12.90
2018-10-17T19:40:29.609Z,12.17
2018-10-17T19:42:57.936Z,13.23
2018-10-17T19:45:26.284Z,12.30
2018-10-17T19:47:54.654Z,12.47
2018-10-17T19:50:22.935Z,12.67
2018-10-17T19:52:51.268Z,12.67
2018-10-17T19:55:19.597Z,12.50
2018-10-17T19:57:47.902Z,12.00
2018-10-17T20:00:16.235Z,12.13
2018-10-17T20:02:44.564Z,12.47
2018-10-17T20:05:12.999Z,11.10
2018-10-17T20:07:41.457Z,11.73
2018-10-17T20:10:09.770Z,11.53
2018-10-17T20:12:38.112Z,12.63
2018-10-17T20:15:06.909Z,11.30
2018-10-17T20:17:35.176Z,11.33
2018-10-17T20:20:03.547Z,11.67
2018-10-17T20:22:31.898Z,11.83
2018-10-17T20:25:06.670Z,12.03
2018-10-17T20:27:35.085Z,12.17
2018-10-17T20:30:03.427Z,11.80
2018-10-17T20:32:31.720Z,12.30
2018-10-17T20:35:00.088Z,12.77
2018-10-17T20:37:28.388Z,13.10
2018-10-17T20:39:56.785Z,11.77
2018-10-17T20:42:25.206Z,12.07
2018-10-17T20:44:53.489Z,13.07
2018-10-17T20:47:21.805Z,12.40
2018-10-17T20:49:50.103Z,13.20
2018-10-17T20:52:18.521Z,12.10
2018-10-17T20:54:46.828Z,12.00
2018-10-17T20:57:15.177Z,13.97
2018-10-17T20:59:43.530Z,14.10
2018-10-17T21:02:11.941Z,12.70
2018-10-17T21:04:40.258Z,11.67
2018-10-17T21:07:08.593Z,12.00
2018-10-17T21:09:36.914Z,12.60
2018-10-17T21:12:05.290Z,12.60
2018-10-17T21:14:33.612Z,11.30
2018-10-17T21:17:02.008Z,11.63
2018-10-17T21:19:30.394Z,11.47
2018-10-17T21:21:58.828Z,11.57
2018-10-17T21:24:27.157Z,10.93
2018-10-17T21:26:55.528Z,11.53
2018-10-17T21:29:23.792Z,11.43
2018-10-17T21:31:52.489Z,11.60
2018-10-17T21:34:20.759Z,11.53
2018-10-17T21:36:49.084Z,10.73
2018-10-17T21:39:17.431Z,11.77
2018-10-17T21:41:45.720Z,12.20
2018-10-17T21:44:14.182Z,12.17
2018-10-17T21:46:42.400Z,12.60
2018-10-17T21:49:10.883Z,12.60
2018-10-17T21:51:39.743Z,12.13
2018-10-17T21:54:08.269Z,13.10
2018-10-17T21:56:36.917Z,12.70
2018-10-17T21:59:05.905Z,12.47
2018-10-17T22:01:34.283Z,12.57
2018-10-17T22:04:02.613Z,12.67
2018-10-17T22:06:30.926Z,12.37
2018-10-17T22:08:59.303Z,13.03
2018-10-17T22:11:27.644Z,12.30
2018-10-17T22:13:56.027Z,12.57
2018-10-17T22:16:29.835Z,12.33
2018-10-17T22:18:58.273Z,13.33
2018-10-17T22:21:26.666Z,12.90
2018-10-17T22:23:54.962Z,12.20
2018-10-17T22:26:23.279Z,12.20
2018-10-17T22:28:51.684Z,12.17
2018-10-17T22:31:20.024Z,12.67
2018-10-17T22:33:48.392Z,12.30
2018-10-17T22:36:16.699Z,11.93
2018-10-17T22:38:45.032Z,12.07
2018-10-17T22:41:13.382Z,12.77
2018-10-17T22:43:41.716Z,12.13
2018-10-17T22:46:10.048Z,12.87
2018-10-17T22:48:38.357Z,13.03
2018-10-17T22:51:06.802Z,12.67
2018-10-17T22:53:35.104Z,12.73
2018-10-17T22:56:03.479Z,13.57
2018-10-17T22:58:31.818Z,14.00
2018-10-17T23:01:00.507Z,13.23
2018-10-17T23:03:28.857Z,13.60
2018-10-17T23:05:57.204Z,13.20
2018-10-17T23:08:25.515Z,12.97
2018-10-17T23:10:53.873Z,12.40
2018-10-17T23:13:22.202Z,11.43
2018-10-17T23:15:50.600Z,11.97
2018-10-17T23:18:18.877Z,11.57
2018-10-17T23:20:47.202Z,12.67
2018-10-17T23:23:15.522Z,12.87
2018-10-17T23:25:43.851Z,12.33
2018-10-17T23:28:12.152Z,12.70
2018-10-17T23:30:40.545Z,14.10
2018-10-17T23:33:08.827Z,13.77
2018-10-17T23:35:37.200Z,12.97
2018-10-17T23:38:05.643Z,13.00
2018-10-17T23:40:33.879Z,12.10
2018-10-17T23:43:02.339Z,12.07
2018-10-17T23:45:30.653Z,11.40
2018-10-17T23:47:59.118Z,11.60
2018-10-17T23:50:27.451Z,12.10
2018-10-17T23:52:55.772Z,11.17
2018-10-17T23:55:24.120Z,11.53
2018-10-17T23:57:52.458Z,11.67
